createdAt,value
2023-05-19T00:00:31.822Z,100.00
2023-05-19T00:05:41.121Z,100.00
2023-05-19T00:10:44.649Z,100.00
2023-05-19T00:15:47.564Z,100.00
2023-05-19T00:20:51.524Z,100.00
2023-05-19T00:25:54.428Z,100.00
2023-05-19T00:30:56.800Z,100.00
2023-05-19T00:35:59.503Z,100.00
2023-05-19T00:41:03.524Z,100.00
2023-05-19T00:46:07.616Z,100.00
2023-05-19T00:51:14.894Z,100.00
2023-05-19T00:56:18.836Z,100.00
2023-05-19T01:01:21.992Z,100.00
2023-05-19T01:06:25.847Z,100.00
2023-05-19T01:11:28.757Z,100.00
2023-05-19T01:16:40.692Z,100.00
2023-05-19T01:21:58.509Z,100.00
2023-05-19T01:27:25.526Z,100.00
2023-05-19T01:32:30.204Z,100.00
2023-05-19T01:37:33.702Z,100.00
2023-05-19T01:42:40.288Z,100.00
2023-05-19T01:47:45.622Z,100.00
2023-05-19T01:52:48.529Z,100.00
2023-05-19T01:58:03.022Z,100.00
2023-05-19T02:03:08.952Z,100.00
2023-05-19T02:08:30.763Z,100.00
2023-05-19T02:13:41.520Z,100.00
2023-05-19T02:18:45.810Z,100.00
2023-05-19T02:23:49.059Z,100.00
2023-05-19T02:28:51.884Z,100.00
2023-05-19T02:33:54.693Z,100.00
2023-05-19T02:38:57.153Z,100.00
2023-05-19T02:44:00.293Z,100.00
2023-05-19T02:49:03.038Z,100.00
2023-05-19T02:54:05.873Z,100.00
2023-05-19T02:59:08.709Z,100.00
2023-05-19T03:04:11.579Z,100.00
2023-05-19T03:09:14.816Z,100.00
2023-05-19T03:14:18.955Z,100.00
2023-05-19T03:19:21.776Z,100.00
2023-05-19T03:24:24.621Z,100.00
2023-05-19T03:29:27.264Z,100.00
2023-05-19T03:34:30.347Z,100.00
2023-05-19T03:39:33.856Z,100.00
2023-05-19T03:44:36.668Z,100.00
2023-05-19T03:49:39.691Z,100.00
2023-05-19T03:55:00.716Z,100.00
2023-05-19T04:00:05.495Z,100.00
2023-05-19T04:05:14.528Z,100.00
2023-05-19T04:10:17.229Z,100.00
2023-05-19T04:15:20.001Z,100.00
2023-05-19T04:20:22.935Z,100.00
2023-05-19T04:25:28.491Z,100.00
2023-05-19T04:30:31.475Z,100.00
2023-05-19T04:35:34.826Z,100.00
2023-05-19T04:40:38.227Z,100.00
2023-05-19T04:45:42.812Z,100.00
2023-05-19T04:50:49.386Z,100.00
2023-05-19T04:55:51.990Z,100.00
2023-05-19T05:00:58.931Z,100.00
2023-05-19T05:06:03.592Z,100.00
2023-05-19T05:11:06.831Z,98.78
2023-05-19T05:16:11.606Z,97.77
2023-05-19T05:21:15.264Z,97.62
2023-05-19T05:26:19.886Z,98.13
2023-05-19T05:31:25.256Z,96.64
2023-05-19T05:36:28.399Z,93.63
2023-05-19T05:41:35.579Z,91.35
2023-05-19T05:46:45.341Z,92.53
2023-05-19T05:52:01.906Z,91.49
